Current | Forecast
Updated: 5:00 PM +07 on May 22, 2018
Observed at Tolmachevo, Russia
Temperature 48°F
Humidity 87%
Dew Point 45°F
Wind NNW at 4 mph
Pressure 29.68 in (Steady)
Conditions Light Rain Showers
Visibility 6.2 miles
UV 2 out of 16
Clouds Mostly Cloudy (BKN) : 6000 ft
Yesterday's Maximum 72°F
Yesterday's Minimum 46°F approx.
Yesterday's Heating Degree Days 6 approx.
Sunrise4:15 AM +06
Sunset8:46 PM +06
Moon Rise11:39 AM +06
Moon Set1:55 AM +06
Moon PhaseMoon Phase
First Quarter
Raw METARMETAR UNNT 221000Z 33002MPS 9999 -SHRA BKN060CB 09/07 Q1005 R25/290160 R34/290160 NOSIG RMK QFE744/0992


Monday
. High: 55° F.
Tuesday
. High: 66° F.
Wednesday
. High: 71° F.
Thursday
. High: 68° F.
Friday
. High: 68° F.
Saturday
. High: 69° F.
Sunday
. High: 75° F.
Monday
. High: 68° F.

Units: English | Metric

Find the Weather for any City, State or Zipcode, or Country:

U.S. State List | Severe Weather | Tropical Storms | Ski Conditions
United States | Canada | Central America | South America | Asia | Europe | Australia | Africa | Islands

Weather Underground

© Copyright 2018
The Weather Company, LLC